createdAt,value
2017-11-15T00:00:39.528Z,18.20
2017-11-15T00:01:44.715Z,18.20
2017-11-15T00:02:49.945Z,18.20
2017-11-15T00:03:54.987Z,18.20
2017-11-15T00:05:00.216Z,18.10
2017-11-15T00:06:05.428Z,18.10
2017-11-15T00:07:10.744Z,18.10
2017-11-15T00:08:16.001Z,18.20
2017-11-15T00:09:21.594Z,18.10
2017-11-15T00:10:26.517Z,18.20
2017-11-15T00:11:31.657Z,18.20
2017-11-15T00:12:36.593Z,18.10
2017-11-15T00:13:41.589Z,18.10
2017-11-15T00:14:46.525Z,18.10
2017-11-15T00:15:51.739Z,18.20
2017-11-15T00:16:57.294Z,18.10
2017-11-15T00:18:02.272Z,18.10
2017-11-15T00:19:07.888Z,18.10
2017-11-15T00:20:13.073Z,18.10
2017-11-15T00:21:18.293Z,18.10
2017-11-15T00:22:23.456Z,18.10
2017-11-15T00:23:28.515Z,18.10
2017-11-15T00:24:33.578Z,18.10
2017-11-15T00:25:38.497Z,18.10
2017-11-15T00:26:44.835Z,18.10
2017-11-15T00:27:50.121Z,18.10
2017-11-15T00:28:55.105Z,18.10
2017-11-15T00:29:59.748Z,18.10
2017-11-15T00:31:04.387Z,18.10
2017-11-15T00:32:09.216Z,18.10
2017-11-15T00:33:13.882Z,18.10
2017-11-15T00:34:18.553Z,18.10
2017-11-15T00:35:23.231Z,18.10
2017-11-15T00:36:27.877Z,18.10
2017-11-15T00:37:32.534Z,18.10
2017-11-15T00:38:37.452Z,18.00
2017-11-15T00:39:42.326Z,18.10
2017-11-15T00:40:46.962Z,18.00
2017-11-15T00:41:51.433Z,18.10
2017-11-15T00:42:56.340Z,18.10
2017-11-15T00:44:01.036Z,18.00
2017-11-15T00:45:05.749Z,18.10
2017-11-15T00:46:10.473Z,18.00
2017-11-15T00:47:15.152Z,18.10
2017-11-15T00:48:19.952Z,18.00
2017-11-15T00:49:24.585Z,18.00
2017-11-15T00:50:29.291Z,18.00
2017-11-15T00:51:33.858Z,18.00
2017-11-15T00:52:38.589Z,18.00
2017-11-15T00:53:43.250Z,18.00
2017-11-15T00:54:47.841Z,18.00
2017-11-15T00:55:52.729Z,18.10
2017-11-15T00:56:57.526Z,18.00
2017-11-15T00:58:02.284Z,18.10
2017-11-15T00:59:06.873Z,18.00
2017-11-15T01:00:11.592Z,18.00
2017-11-15T01:01:16.352Z,18.00
2017-11-15T01:02:20.875Z,18.00
2017-11-15T01:03:25.581Z,18.00
2017-11-15T01:04:30.108Z,18.10
2017-11-15T01:05:34.965Z,18.10
2017-11-15T01:06:39.591Z,18.00
2017-11-15T01:07:44.240Z,18.00
2017-11-15T01:08:49.113Z,18.00
2017-11-15T01:09:53.954Z,18.00
2017-11-15T01:10:58.811Z,18.10
2017-11-15T01:12:03.705Z,18.00
2017-11-15T01:13:08.373Z,18.10
2017-11-15T01:14:13.167Z,18.00
2017-11-15T01:15:17.821Z,18.00
2017-11-15T01:16:22.529Z,18.00
2017-11-15T01:17:27.243Z,18.00
2017-11-15T01:18:31.743Z,18.00
2017-11-15T01:19:36.388Z,18.00
2017-11-15T01:20:41.221Z,18.00
2017-11-15T01:21:45.876Z,18.00
2017-11-15T01:22:50.576Z,18.00
2017-11-15T01:23:55.559Z,18.10
2017-11-15T01:25:00.215Z,18.10
2017-11-15T01:26:04.971Z,18.00
2017-11-15T01:27:09.616Z,18.00
2017-11-15T01:28:14.406Z,18.10
2017-11-15T01:29:19.247Z,18.00
2017-11-15T01:30:23.883Z,18.00
2017-11-15T01:31:28.748Z,18.00
2017-11-15T01:32:33.634Z,18.00
2017-11-15T01:33:38.151Z,18.10
2017-11-15T01:34:42.917Z,18.10
2017-11-15T01:35:47.603Z,18.00
2017-11-15T01:36:52.318Z,18.00
2017-11-15T01:37:56.921Z,18.00
2017-11-15T01:39:01.521Z,18.00
2017-11-15T01:40:06.063Z,18.00
2017-11-15T01:41:10.736Z,18.10
2017-11-15T01:42:15.263Z,18.00
2017-11-15T01:43:19.988Z,18.00
2017-11-15T01:44:24.806Z,18.00
2017-11-15T01:45:29.583Z,18.00
2017-11-15T01:46:35.516Z,18.00
2017-11-15T01:47:40.183Z,18.00
2017-11-15T01:48:44.873Z,18.00
2017-11-15T01:49:49.519Z,18.00
2017-11-15T01:50:54.356Z,18.00
2017-11-15T01:51:58.846Z,18.00
2017-11-15T01:53:03.433Z,18.00
2017-11-15T01:54:08.005Z,18.10
2017-11-15T01:55:12.514Z,18.00
2017-11-15T01:56:17.286Z,18.00
2017-11-15T01:57:22.077Z,18.10
2017-11-15T01:58:27.220Z,18.00
2017-11-15T01:59:31.979Z,18.00
2017-11-15T02:00:36.705Z,18.00
2017-11-15T02:01:41.535Z,18.00
2017-11-15T02:02:46.379Z,18.00
2017-11-15T02:03:51.071Z,18.00
2017-11-15T02:04:55.690Z,18.10
2017-11-15T02:06:00.393Z,18.00
2017-11-15T02:07:05.068Z,18.00
2017-11-15T02:08:09.655Z,18.10
2017-11-15T02:09:14.276Z,18.10
2017-11-15T02:10:18.928Z,18.00
2017-11-15T02:11:23.553Z,18.10
2017-11-15T02:12:28.141Z,18.00
2017-11-15T02:13:32.864Z,18.00
2017-11-15T02:14:37.388Z,18.00
2017-11-15T02:15:42.172Z,18.00
2017-11-15T02:16:46.945Z,18.00
2017-11-15T02:17:51.883Z,18.00
2017-11-15T02:18:56.847Z,18.00
2017-11-15T02:20:01.513Z,18.00
2017-11-15T02:21:06.298Z,18.00
2017-11-15T02:22:11.009Z,18.00
2017-11-15T02:23:15.809Z,18.00
2017-11-15T02:24:20.662Z,18.00
2017-11-15T02:25:25.365Z,18.00
2017-11-15T02:26:30.378Z,18.00
2017-11-15T02:27:35.159Z,18.00
2017-11-15T02:28:39.682Z,18.00
2017-11-15T02:29:44.366Z,18.00
2017-11-15T02:30:49.180Z,18.00
2017-11-15T02:31:53.829Z,18.00
2017-11-15T02:32:58.624Z,18.00
2017-11-15T02:34:03.311Z,18.00
2017-11-15T02:35:08.213Z,18.00
2017-11-15T02:36:12.689Z,18.00
2017-11-15T02:37:17.312Z,18.00
2017-11-15T02:38:21.984Z,18.00
2017-11-15T02:39:26.669Z,18.00
2017-11-15T02:40:31.607Z,18.00
2017-11-15T02:41:36.428Z,18.00
2017-11-15T02:42:41.170Z,18.00
2017-11-15T02:43:45.923Z,18.00
2017-11-15T02:44:50.635Z,18.00
2017-11-15T02:45:55.278Z,18.00
2017-11-15T02:46:59.940Z,18.00
2017-11-15T02:48:04.696Z,18.00
2017-11-15T02:49:09.344Z,18.00
2017-11-15T02:50:14.005Z,18.00
2017-11-15T02:51:18.544Z,18.00
2017-11-15T02:52:23.192Z,18.00
2017-11-15T02:53:27.740Z,18.00
2017-11-15T02:54:32.537Z,18.00
2017-11-15T02:55:37.360Z,18.00
2017-11-15T02:56:42.208Z,18.00
2017-11-15T02:57:46.823Z,18.00
2017-11-15T02:58:51.695Z,18.00
2017-11-15T02:59:56.346Z,18.00
2017-11-15T03:01:01.154Z,18.00
2017-11-15T03:02:06.000Z,18.00
2017-11-15T03:03:10.768Z,18.00
2017-11-15T03:04:15.438Z,18.00
2017-11-15T03:05:20.222Z,18.00
2017-11-15T03:06:24.733Z,18.00
2017-11-15T03:07:29.521Z,18.00
2017-11-15T03:08:34.368Z,18.00
2017-11-15T03:09:39.052Z,18.00
2017-11-15T03:10:43.869Z,18.00
2017-11-15T03:11:48.497Z,18.00
2017-11-15T03:12:53.251Z,18.00
2017-11-15T03:13:57.899Z,18.00
2017-11-15T03:15:02.620Z,18.00
2017-11-15T03:16:07.275Z,18.00
2017-11-15T03:17:11.955Z,18.00
2017-11-15T03:18:16.638Z,18.00
2017-11-15T03:19:21.423Z,18.00
2017-11-15T03:20:25.965Z,18.00
2017-11-15T03:21:30.635Z,18.00
2017-11-15T03:22:35.164Z,18.00
2017-11-15T03:23:39.874Z,18.00
2017-11-15T03:24:44.673Z,18.00
2017-11-15T03:25:49.412Z,18.00
2017-11-15T03:26:54.290Z,18.00
2017-11-15T03:27:58.872Z,18.00
2017-11-15T03:29:03.387Z,18.00
2017-11-15T03:30:08.025Z,18.00
2017-11-15T03:31:12.586Z,18.00
2017-11-15T03:32:17.180Z,18.00
2017-11-15T03:33:21.952Z,18.00
2017-11-15T03:34:26.638Z,18.00
2017-11-15T03:35:31.416Z,18.00
2017-11-15T03:36:36.328Z,18.00
2017-11-15T03:37:40.836Z,18.00
2017-11-15T03:38:45.466Z,18.00
2017-11-15T03:39:50.186Z,18.00
2017-11-15T03:40:54.708Z,18.00
2017-11-15T03:41:59.424Z,18.00
2017-11-15T03:43:04.328Z,18.00
2017-11-15T03:44:08.878Z,18.00
2017-11-15T03:45:13.531Z,18.00
2017-11-15T03:46:18.335Z,18.00
2017-11-15T03:47:23.000Z,18.00
2017-11-15T03:48:27.721Z,18.00
2017-11-15T03:49:32.421Z,18.00
2017-11-15T03:50:37.094Z,18.00
2017-11-15T03:51:41.798Z,18.00
2017-11-15T03:52:46.477Z,18.00
2017-11-15T03:53:51.113Z,18.00
2017-11-15T03:54:55.948Z,18.00
2017-11-15T03:56:00.585Z,18.00
2017-11-15T03:57:05.252Z,18.00
2017-11-15T03:58:09.871Z,18.00
2017-11-15T03:59:14.622Z,18.00
2017-11-15T04:00:19.341Z,18.00
2017-11-15T04:01:23.830Z,18.00
2017-11-15T04:02:28.550Z,18.00
2017-11-15T04:03:33.279Z,18.00
2017-11-15T04:04:37.892Z,18.00
2017-11-15T04:05:42.385Z,18.00
2017-11-15T04:06:46.986Z,18.00
2017-11-15T04:07:51.666Z,18.00
2017-11-15T04:08:56.287Z,18.00
2017-11-15T04:10:00.794Z,18.00
2017-11-15T04:11:05.275Z,18.00
2017-11-15T04:12:09.923Z,18.00
2017-11-15T04:13:14.496Z,18.00
2017-11-15T04:14:19.121Z,18.00
2017-11-15T04:15:23.724Z,18.00
2017-11-15T04:16:28.565Z,18.00
2017-11-15T04:17:33.218Z,18.00
2017-11-15T04:18:37.721Z,18.00
2017-11-15T04:19:42.325Z,18.00
2017-11-15T04:20:47.156Z,18.00
2017-11-15T04:21:51.630Z,18.00
2017-11-15T04:22:56.285Z,18.00
2017-11-15T04:24:01.054Z,18.00
2017-11-15T04:25:05.698Z,18.00
2017-11-15T04:26:10.686Z,18.00
2017-11-15T04:27:15.693Z,18.00
2017-11-15T04:28:20.630Z,18.00
2017-11-15T04:29:25.664Z,18.00
2017-11-15T04:30:30.359Z,18.00
2017-11-15T04:31:35.428Z,18.00
2017-11-15T04:32:40.661Z,18.00
2017-11-15T04:33:45.774Z,18.00
2017-11-15T04:34:50.913Z,18.00
2017-11-15T04:35:55.809Z,18.00
2017-11-15T04:37:00.943Z,18.00
2017-11-15T04:38:06.013Z,18.00
2017-11-15T04:39:11.144Z,18.00
2017-11-15T04:40:16.744Z,18.00
2017-11-15T04:41:22.200Z,18.00
2017-11-15T04:42:27.374Z,18.00
2017-11-15T04:43:32.421Z,18.00
2017-11-15T04:44:37.241Z,18.00
2017-11-15T04:45:42.458Z,18.00
2017-11-15T04:46:47.522Z,18.00
2017-11-15T04:47:52.657Z,18.00
2017-11-15T04:48:57.675Z,18.00
2017-11-15T04:50:02.862Z,18.00
2017-11-15T04:51:07.847Z,18.00
2017-11-15T04:52:13.131Z,18.00
2017-11-15T04:53:18.240Z,18.00
2017-11-15T04:54:23.028Z,18.00
2017-11-15T04:55:27.788Z,18.00
2017-11-15T04:56:32.727Z,18.00
2017-11-15T04:57:38.263Z,18.00
2017-11-15T04:58:44.245Z,18.00
2017-11-15T04:59:49.412Z,18.00
2017-11-15T05:00:55.008Z,18.00
2017-11-15T05:02:00.401Z,18.00
2017-11-15T05:03:05.619Z,18.00
2017-11-15T05:04:10.456Z,18.00
2017-11-15T05:05:15.453Z,18.00
2017-11-15T05:06:21.707Z,18.00
2017-11-15T05:07:26.505Z,18.00
2017-11-15T05:08:44.169Z,18.00
2017-11-15T05:09:49.007Z,18.00
2017-11-15T05:10:54.159Z,18.00
2017-11-15T05:11:59.657Z,18.00
2017-11-15T05:13:04.701Z,18.00
2017-11-15T05:14:09.714Z,18.00
2017-11-15T05:15:15.454Z,18.00
2017-11-15T05:16:20.924Z,18.00
2017-11-15T05:17:25.923Z,18.10
2017-11-15T05:18:31.123Z,18.10
2017-11-15T05:19:36.465Z,18.20
2017-11-15T05:20:41.333Z,18.20
2017-11-15T05:21:46.525Z,18.30
2017-11-15T05:22:51.522Z,18.40
2017-11-15T05:23:56.644Z,18.50
2017-11-15T05:25:01.843Z,18.60
2017-11-15T05:26:06.824Z,18.60
2017-11-15T05:27:11.576Z,18.70
2017-11-15T05:28:17.190Z,18.70
2017-11-15T05:29:23.237Z,18.80
2017-11-15T05:30:28.252Z,18.80
2017-11-15T05:31:32.998Z,18.90
2017-11-15T05:32:37.954Z,18.90
2017-11-15T05:33:43.616Z,19.00
2017-11-15T05:34:48.605Z,19.00
2017-11-15T05:35:53.493Z,19.10
2017-11-15T05:36:58.812Z,19.10
2017-11-15T05:38:03.760Z,19.20
2017-11-15T05:39:08.988Z,19.30
2017-11-15T05:40:14.408Z,19.40
2017-11-15T05:41:19.685Z,19.40
2017-11-15T05:42:25.044Z,19.50
2017-11-15T05:43:30.419Z,19.50
2017-11-15T05:44:35.810Z,19.60
2017-11-15T05:45:43.348Z,19.60
2017-11-15T05:46:48.736Z,19.60
2017-11-15T05:47:55.509Z,19.70
2017-11-15T05:49:02.351Z,19.70
2017-11-15T05:50:07.380Z,19.70
2017-11-15T05:51:12.652Z,19.70
2017-11-15T05:52:17.818Z,19.70
2017-11-15T05:53:22.910Z,19.70
2017-11-15T05:54:28.351Z,19.70
2017-11-15T05:55:33.587Z,19.70
2017-11-15T05:56:38.883Z,19.70
2017-11-15T05:57:43.878Z,19.70
2017-11-15T05:58:49.056Z,19.70
2017-11-15T05:59:54.404Z,19.70
2017-11-15T06:01:01.204Z,19.70
2017-11-15T06:02:06.370Z,19.70
2017-11-15T06:03:11.931Z,19.70
2017-11-15T06:04:17.525Z,19.70
2017-11-15T06:05:23.450Z,19.70
2017-11-15T06:06:28.847Z,19.70
2017-11-15T06:07:34.051Z,19.60
2017-11-15T06:08:39.184Z,19.60
2017-11-15T06:09:44.570Z,19.60
2017-11-15T06:10:49.764Z,19.60
2017-11-15T06:11:54.909Z,19.60
2017-11-15T06:13:00.037Z,19.60
2017-11-15T06:14:05.339Z,19.60
2017-11-15T06:15:10.380Z,19.60
2017-11-15T06:16:15.657Z,19.60
2017-11-15T06:17:21.549Z,19.50
2017-11-15T06:18:26.858Z,19.50
2017-11-15T06:19:32.316Z,19.50
2017-11-15T06:20:37.677Z,19.40
2017-11-15T06:21:43.133Z,19.40
2017-11-15T06:22:48.395Z,19.40
2017-11-15T06:23:53.647Z,19.40
2017-11-15T06:24:58.829Z,19.40
2017-11-15T06:26:04.195Z,19.40
2017-11-15T06:27:09.247Z,19.40
2017-11-15T06:28:14.363Z,19.30
2017-11-15T06:29:19.615Z,19.30
2017-11-15T06:30:24.973Z,19.30
2017-11-15T06:31:30.227Z,19.30
2017-11-15T06:32:35.177Z,19.30
2017-11-15T06:33:40.248Z,19.20
2017-11-15T06:34:46.116Z,19.20
2017-11-15T06:35:51.011Z,19.30
2017-11-15T06:36:56.774Z,19.30
2017-11-15T06:38:02.806Z,19.20
2017-11-15T06:39:08.610Z,19.20
2017-11-15T06:40:13.805Z,19.20
2017-11-15T06:41:19.082Z,19.20
2017-11-15T06:42:24.445Z,19.20
2017-11-15T06:43:29.355Z,19.20
2017-11-15T06:44:34.459Z,19.20
2017-11-15T06:45:39.937Z,19.20
2017-11-15T06:46:44.979Z,19.20
2017-11-15T06:47:50.261Z,19.20
2017-11-15T06:48:55.816Z,19.10
2017-11-15T06:50:02.478Z,19.10
2017-11-15T06:51:08.208Z,19.10
2017-11-15T06:52:13.845Z,19.10
2017-11-15T06:53:19.764Z,19.10
2017-11-15T06:54:25.257Z,19.10
2017-11-15T06:55:30.788Z,19.00
2017-11-15T06:56:36.288Z,19.00
2017-11-15T06:57:41.245Z,19.00
2017-11-15T06:58:46.492Z,19.00
2017-11-15T06:59:51.836Z,19.00
2017-11-15T07:00:57.534Z,19.00
2017-11-15T07:02:02.819Z,19.00
2017-11-15T07:03:07.964Z,18.90
2017-11-15T07:04:13.707Z,18.90
2017-11-15T07:05:18.675Z,18.90
2017-11-15T07:06:24.015Z,18.90
2017-11-15T07:07:29.326Z,18.90
2017-11-15T07:08:34.542Z,18.90
2017-11-15T07:09:39.799Z,18.90
2017-11-15T07:10:45.342Z,18.90
2017-11-15T07:11:51.964Z,18.80
2017-11-15T07:12:57.272Z,18.80
2017-11-15T07:14:02.494Z,18.80
2017-11-15T07:15:08.141Z,18.80
2017-11-15T07:16:13.389Z,18.80
2017-11-15T07:17:18.496Z,18.80
2017-11-15T07:18:23.508Z,18.80
2017-11-15T07:19:28.732Z,18.80
2017-11-15T07:20:33.918Z,18.80
2017-11-15T07:21:40.124Z,18.80
2017-11-15T07:22:45.211Z,18.80
2017-11-15T07:23:50.689Z,18.80
2017-11-15T07:24:55.785Z,18.80
2017-11-15T07:26:00.796Z,18.80
2017-11-15T07:27:06.679Z,18.80
2017-11-15T07:28:12.154Z,18.80
2017-11-15T07:29:17.853Z,18.80
2017-11-15T07:30:23.471Z,18.80
2017-11-15T07:31:28.779Z,18.80
2017-11-15T07:32:34.265Z,18.80
2017-11-15T07:33:39.109Z,18.70
2017-11-15T07:34:44.072Z,18.70
2017-11-15T07:35:49.336Z,18.80
2017-11-15T07:36:54.479Z,18.70
2017-11-15T07:37:59.572Z,18.70
2017-11-15T07:39:04.531Z,18.70
2017-11-15T07:40:10.464Z,18.70
2017-11-15T07:41:16.098Z,18.70
2017-11-15T07:42:21.266Z,18.70
2017-11-15T07:43:26.312Z,18.60
2017-11-15T07:44:31.629Z,18.70
2017-11-15T07:45:36.902Z,18.70
2017-11-15T07:46:42.346Z,18.60
2017-11-15T07:47:47.126Z,18.60
2017-11-15T07:48:52.546Z,18.60
2017-11-15T07:49:58.003Z,18.60
2017-11-15T07:51:03.223Z,18.60
2017-11-15T07:52:08.308Z,18.60
2017-11-15T07:53:13.473Z,18.60
2017-11-15T07:54:18.971Z,18.60
2017-11-15T07:55:24.319Z,18.60
2017-11-15T07:56:29.517Z,18.60
2017-11-15T07:57:34.984Z,18.60
2017-11-15T07:58:39.792Z,18.60
2017-11-15T07:59:44.647Z,18.60
2017-11-15T08:00:50.003Z,18.60
2017-11-15T08:01:55.381Z,18.60
2017-11-15T08:03:00.336Z,18.60
2017-11-15T08:04:05.374Z,18.60
2017-11-15T08:05:10.718Z,18.60
2017-11-15T08:06:15.351Z,18.60
2017-11-15T08:07:20.266Z,18.60
2017-11-15T08:08:25.269Z,18.60
2017-11-15T08:09:30.072Z,18.60
2017-11-15T08:10:35.297Z,18.60
2017-11-15T08:11:40.600Z,18.60
2017-11-15T08:12:47.072Z,18.60
2017-11-15T08:13:52.364Z,18.60
2017-11-15T08:14:57.313Z,18.60
2017-11-15T08:16:02.550Z,18.60
2017-11-15T08:17:07.259Z,18.60
2017-11-15T08:18:12.596Z,18.60
2017-11-15T08:19:18.590Z,18.60
2017-11-15T08:20:23.645Z,18.60
2017-11-15T08:21:28.728Z,18.60
2017-11-15T08:22:33.713Z,18.60
2017-11-15T08:23:38.700Z,18.70
2017-11-15T08:24:43.705Z,18.70
2017-11-15T08:25:48.971Z,18.70
2017-11-15T08:26:54.584Z,18.70
2017-11-15T08:27:59.774Z,18.70
2017-11-15T08:29:04.916Z,18.70
2017-11-15T08:30:10.114Z,18.70
2017-11-15T08:31:16.671Z,18.70
2017-11-15T08:32:21.815Z,18.70
2017-11-15T08:33:26.926Z,18.70
2017-11-15T08:34:31.716Z,18.70
2017-11-15T08:35:36.994Z,18.70
2017-11-15T08:36:42.003Z,18.70
2017-11-15T08:37:47.220Z,18.70
2017-11-15T08:38:52.340Z,18.70
2017-11-15T08:39:57.512Z,18.70
2017-11-15T08:41:02.946Z,18.70
2017-11-15T08:42:07.959Z,18.70
2017-11-15T08:43:13.388Z,18.70
2017-11-15T08:44:18.323Z,18.70
2017-11-15T08:45:23.561Z,18.70
2017-11-15T08:46:30.433Z,18.70
2017-11-15T08:47:35.532Z,18.70
2017-11-15T08:48:40.841Z,18.70
2017-11-15T08:49:46.111Z,18.70
2017-11-15T08:50:51.304Z,18.70
2017-11-15T08:51:56.744Z,18.70
2017-11-15T08:53:02.931Z,18.70
2017-11-15T08:54:08.256Z,18.70
2017-11-15T08:55:13.642Z,18.80
2017-11-15T08:56:18.535Z,18.80
2017-11-15T08:57:23.672Z,18.80
2017-11-15T08:58:28.704Z,18.80
2017-11-15T08:59:33.844Z,18.80
2017-11-15T09:00:39.065Z,18.80
2017-11-15T09:01:44.552Z,18.80
2017-11-15T09:02:49.776Z,18.80
2017-11-15T09:03:55.092Z,18.80
2017-11-15T09:05:00.819Z,18.70
2017-11-15T09:06:05.909Z,18.70
2017-11-15T09:07:11.163Z,18.70
2017-11-15T09:08:16.270Z,18.80
2017-11-15T09:09:21.530Z,18.80
2017-11-15T09:10:26.544Z,18.80
2017-11-15T09:11:31.615Z,18.70
2017-11-15T09:12:36.651Z,18.80
2017-11-15T09:13:41.919Z,18.80
2017-11-15T09:14:46.898Z,18.80
2017-11-15T09:15:52.192Z,18.70
2017-11-15T09:16:57.232Z,18.80
2017-11-15T09:18:02.552Z,18.80
2017-11-15T09:19:07.791Z,18.80
2017-11-15T09:20:14.758Z,18.80
2017-11-15T09:21:20.252Z,18.80
2017-11-15T09:22:25.329Z,18.80
2017-11-15T09:23:30.531Z,18.80
2017-11-15T09:24:35.431Z,18.80
2017-11-15T09:25:40.822Z,18.80
2017-11-15T09:26:46.795Z,18.80
2017-11-15T09:27:51.633Z,18.80
2017-11-15T09:28:56.792Z,18.80
2017-11-15T09:30:02.116Z,18.80
2017-11-15T09:31:07.266Z,18.80
2017-11-15T09:32:12.513Z,18.70
2017-11-15T09:33:17.709Z,18.80
2017-11-15T09:34:22.673Z,18.80
2017-11-15T09:35:27.618Z,18.70
2017-11-15T09:36:32.466Z,18.70
2017-11-15T09:37:37.269Z,18.70
2017-11-15T09:38:42.098Z,18.70
2017-11-15T09:39:46.906Z,18.70
2017-11-15T09:40:51.612Z,18.70
2017-11-15T09:41:56.952Z,18.70
2017-11-15T09:43:06.304Z,18.70
2017-11-15T09:44:15.385Z,18.70
2017-11-15T09:45:20.197Z,18.70
2017-11-15T09:46:24.867Z,18.70
2017-11-15T09:47:29.675Z,18.70
2017-11-15T09:48:34.369Z,18.70
2017-11-15T09:49:39.290Z,18.70
2017-11-15T09:50:44.020Z,18.60
2017-11-15T09:51:48.690Z,18.60
2017-11-15T09:52:53.376Z,18.60
2017-11-15T09:53:58.436Z,18.60
2017-11-15T09:55:03.485Z,18.60
2017-11-15T09:56:08.323Z,18.60
2017-11-15T09:57:13.078Z,18.60
2017-11-15T09:58:18.180Z,18.60
2017-11-15T09:59:22.834Z,18.60
2017-11-15T10:00:27.873Z,18.60
2017-11-15T10:01:32.859Z,18.60
2017-11-15T10:02:37.677Z,18.60
2017-11-15T10:03:42.491Z,18.60
2017-11-15T10:04:47.405Z,18.60
2017-11-15T10:05:52.786Z,18.60
2017-11-15T10:06:58.380Z,18.60
2017-11-15T10:08:03.649Z,18.60
2017-11-15T10:09:09.299Z,18.60
2017-11-15T10:10:15.056Z,18.50
2017-11-15T10:11:20.176Z,18.50
2017-11-15T10:12:25.674Z,18.50
2017-11-15T10:13:31.097Z,18.50
2017-11-15T10:14:35.823Z,18.50
2017-11-15T10:15:40.813Z,18.50
2017-11-15T10:16:45.869Z,18.50
2017-11-15T10:17:50.724Z,18.50
2017-11-15T10:18:55.861Z,18.50
2017-11-15T10:20:00.664Z,18.50
2017-11-15T10:21:05.509Z,18.50
2017-11-15T10:22:10.522Z,18.50
2017-11-15T10:23:15.515Z,18.50
2017-11-15T10:24:20.360Z,18.50
2017-11-15T10:25:25.001Z,18.50
2017-11-15T10:26:29.668Z,18.50
2017-11-15T10:27:34.547Z,18.50
2017-11-15T10:28:39.456Z,18.50
2017-11-15T10:29:44.149Z,18.40
2017-11-15T10:30:49.037Z,18.50
2017-11-15T10:31:54.024Z,18.40
2017-11-15T10:32:58.846Z,18.40
2017-11-15T10:34:03.882Z,18.40
2017-11-15T10:35:08.697Z,18.40
2017-11-15T10:36:13.398Z,18.40
2017-11-15T10:37:18.339Z,18.40
2017-11-15T10:38:23.081Z,18.40
2017-11-15T10:39:27.701Z,18.40
2017-11-15T10:40:32.504Z,18.40
2017-11-15T10:41:37.305Z,18.40
2017-11-15T10:42:42.146Z,18.40
2017-11-15T10:43:47.114Z,18.40
2017-11-15T10:44:51.906Z,18.40
2017-11-15T10:45:56.796Z,18.40
2017-11-15T10:47:01.542Z,18.40
2017-11-15T10:48:06.323Z,18.30
2017-11-15T10:49:11.274Z,18.30
2017-11-15T10:50:16.050Z,18.40
2017-11-15T10:51:21.030Z,18.30
2017-11-15T10:52:25.742Z,18.30
2017-11-15T10:53:31.030Z,18.30
2017-11-15T10:54:35.690Z,18.30
2017-11-15T10:55:40.672Z,18.30
2017-11-15T10:56:45.380Z,18.30
2017-11-15T10:57:50.424Z,18.30
2017-11-15T10:58:59.765Z,18.30
2017-11-15T11:00:07.467Z,18.30
2017-11-15T11:01:13.739Z,18.30
2017-11-15T11:02:19.045Z,18.30
2017-11-15T11:03:24.028Z,18.30
2017-11-15T11:04:29.018Z,18.30
2017-11-15T11:05:33.824Z,18.30
2017-11-15T11:06:38.735Z,18.30
2017-11-15T11:07:43.555Z,18.30
2017-11-15T11:08:48.365Z,18.30
2017-11-15T11:09:53.399Z,18.30
2017-11-15T11:10:58.403Z,18.30
2017-11-15T11:12:03.420Z,18.30
2017-11-15T11:13:08.054Z,18.30
2017-11-15T11:14:13.021Z,18.30
2017-11-15T11:15:17.670Z,18.30
2017-11-15T11:16:22.697Z,18.30
2017-11-15T11:17:27.709Z,18.30
2017-11-15T11:18:32.352Z,18.30
2017-11-15T11:19:37.214Z,18.30
2017-11-15T11:20:42.068Z,18.30
2017-11-15T11:21:46.683Z,18.30
2017-11-15T11:22:51.751Z,18.30
2017-11-15T11:23:56.673Z,18.30
2017-11-15T11:25:01.693Z,18.30
2017-11-15T11:26:06.537Z,18.30
2017-11-15T11:27:11.251Z,18.30
2017-11-15T11:28:16.373Z,18.30
2017-11-15T11:29:21.734Z,18.30
2017-11-15T11:30:27.828Z,18.30
2017-11-15T11:31:33.102Z,18.30
2017-11-15T11:32:38.348Z,18.30
2017-11-15T11:33:43.320Z,18.40
2017-11-15T11:34:49.420Z,18.30
2017-11-15T11:35:55.886Z,18.40
2017-11-15T11:37:01.157Z,18.40
2017-11-15T11:38:06.684Z,18.40
2017-11-15T11:39:11.886Z,18.40
2017-11-15T11:40:17.236Z,18.40
2017-11-15T11:41:23.173Z,18.40
2017-11-15T11:42:28.331Z,18.40
2017-11-15T11:43:33.666Z,18.40
2017-11-15T11:44:39.040Z,18.40
2017-11-15T11:45:44.029Z,18.40
2017-11-15T11:46:49.368Z,18.40
2017-11-15T11:47:54.729Z,18.40
2017-11-15T11:48:59.755Z,18.40
2017-11-15T11:50:05.025Z,18.40
2017-11-15T11:51:10.194Z,18.40
2017-11-15T11:52:15.236Z,18.40
2017-11-15T11:53:20.734Z,18.50
2017-11-15T11:54:26.941Z,18.50
2017-11-15T11:55:33.600Z,18.50
2017-11-15T11:56:40.679Z,18.50
2017-11-15T11:57:46.212Z,18.50
2017-11-15T11:58:51.343Z,18.50
2017-11-15T11:59:56.302Z,18.50
2017-11-15T12:01:01.622Z,18.50
2017-11-15T12:02:07.570Z,18.50
2017-11-15T12:03:13.299Z,18.50
2017-11-15T12:04:18.579Z,18.50
2017-11-15T12:05:23.777Z,18.60
2017-11-15T12:06:29.374Z,18.60
2017-11-15T12:07:34.389Z,18.60
2017-11-15T12:08:39.798Z,18.50
2017-11-15T12:09:45.099Z,18.60
2017-11-15T12:10:50.226Z,18.60
2017-11-15T12:11:55.885Z,18.60
2017-11-15T12:13:01.575Z,18.60
2017-11-15T12:14:06.378Z,18.60
2017-11-15T12:15:11.745Z,18.60
2017-11-15T12:16:16.775Z,18.60
2017-11-15T12:17:21.934Z,18.50
2017-11-15T12:18:28.542Z,18.60
2017-11-15T12:19:34.145Z,18.60
2017-11-15T12:20:39.150Z,18.60
2017-11-15T12:21:44.931Z,18.60
2017-11-15T12:22:50.418Z,18.60
2017-11-15T12:23:55.533Z,18.60
2017-11-15T12:25:00.748Z,18.60
2017-11-15T12:26:05.483Z,18.60
2017-11-15T12:27:11.008Z,18.60
2017-11-15T12:28:16.604Z,18.60
2017-11-15T12:29:22.918Z,18.60
2017-11-15T12:30:30.095Z,18.60
2017-11-15T12:31:35.075Z,18.60
2017-11-15T12:32:40.425Z,18.60
2017-11-15T12:33:45.959Z,18.60
2017-11-15T12:34:51.690Z,18.60
2017-11-15T12:35:57.086Z,18.60
2017-11-15T12:37:03.201Z,18.60
2017-11-15T12:38:08.432Z,18.60
2017-11-15T12:39:13.453Z,18.60
2017-11-15T12:40:18.699Z,18.70
2017-11-15T12:41:23.972Z,18.70
2017-11-15T12:42:28.920Z,18.60
2017-11-15T12:43:33.741Z,18.60
2017-11-15T12:44:38.864Z,18.60
2017-11-15T12:45:44.557Z,18.60
2017-11-15T12:46:49.896Z,18.60
2017-11-15T12:47:54.934Z,18.60
2017-11-15T12:49:00.185Z,18.70
2017-11-15T12:50:06.017Z,18.60
2017-11-15T12:51:11.330Z,18.70
2017-11-15T12:52:16.707Z,18.70
2017-11-15T12:53:22.113Z,18.70
2017-11-15T12:54:27.129Z,18.60
2017-11-15T12:55:32.487Z,18.60
2017-11-15T12:56:37.761Z,18.60
2017-11-15T12:57:43.143Z,18.60
2017-11-15T12:58:48.369Z,18.60
2017-11-15T12:59:53.667Z,18.60
2017-11-15T13:00:58.585Z,18.60
2017-11-15T13:02:04.088Z,18.60
2017-11-15T13:03:09.543Z,18.60
2017-11-15T13:04:14.927Z,18.60
2017-11-15T13:05:20.574Z,18.60
2017-11-15T13:06:25.794Z,18.60
2017-11-15T13:07:32.620Z,18.60
2017-11-15T13:08:37.729Z,18.60
2017-11-15T13:09:43.337Z,18.60
2017-11-15T13:10:48.337Z,18.70
2017-11-15T13:11:53.432Z,18.70
2017-11-15T13:12:58.672Z,18.80
2017-11-15T13:14:04.254Z,18.80
2017-11-15T13:15:09.777Z,18.90
2017-11-15T13:16:14.828Z,19.00
2017-11-15T13:17:19.714Z,19.10
2017-11-15T13:18:24.955Z,19.10
2017-11-15T13:19:30.478Z,19.20
2017-11-15T13:20:35.583Z,19.30
2017-11-15T13:21:40.847Z,19.30
2017-11-15T13:22:46.263Z,19.40
2017-11-15T13:23:51.209Z,19.50
2017-11-15T13:24:56.228Z,19.50
2017-11-15T13:26:01.856Z,19.60
2017-11-15T13:27:07.199Z,19.60
2017-11-15T13:28:12.632Z,19.70
2017-11-15T13:29:18.039Z,19.80
2017-11-15T13:30:23.513Z,19.80
2017-11-15T13:31:29.114Z,19.80
2017-11-15T13:32:34.352Z,19.80
2017-11-15T13:33:39.472Z,19.80
2017-11-15T13:34:44.511Z,19.80
2017-11-15T13:35:49.377Z,19.80
2017-11-15T13:36:54.645Z,19.80
2017-11-15T13:38:00.017Z,19.90
2017-11-15T13:39:05.563Z,19.90
2017-11-15T13:40:11.181Z,19.90
2017-11-15T13:41:16.301Z,19.90
2017-11-15T13:42:21.978Z,19.90
2017-11-15T13:43:27.274Z,19.90
2017-11-15T13:44:32.579Z,19.80
2017-11-15T13:45:38.202Z,19.80
2017-11-15T13:46:44.171Z,19.80
2017-11-15T13:47:49.910Z,19.80
2017-11-15T13:48:56.406Z,19.70
2017-11-15T13:50:02.325Z,19.70
2017-11-15T13:51:07.530Z,19.70
2017-11-15T13:52:12.767Z,19.70
2017-11-15T13:53:17.725Z,19.70
2017-11-15T13:54:22.959Z,19.70
2017-11-15T13:55:28.454Z,19.70
2017-11-15T13:56:34.647Z,19.70
2017-11-15T13:57:40.638Z,19.70
2017-11-15T13:58:45.887Z,19.60